createdAt,value
2023-03-15T00:02:01.159Z,2.42
2023-03-15T00:04:28.374Z,2.58
2023-03-15T00:06:55.524Z,2.35
2023-03-15T00:09:22.389Z,1.98
2023-03-15T00:11:49.519Z,2.10
2023-03-15T00:14:18.929Z,1.83
2023-03-15T00:16:46.044Z,2.22
2023-03-15T00:19:13.304Z,1.88
2023-03-15T00:21:43.356Z,1.65
2023-03-15T00:24:11.590Z,1.50
2023-03-15T00:26:39.283Z,1.42
2023-03-15T00:29:06.108Z,1.20
2023-03-15T00:31:33.289Z,1.20
2023-03-15T00:34:00.501Z,1.27
2023-03-15T00:36:27.723Z,1.25
2023-03-15T00:38:56.342Z,1.40
2023-03-15T00:41:24.510Z,1.00
2023-03-15T00:43:52.090Z,1.20
2023-03-15T00:46:20.548Z,1.60
2023-03-15T00:48:49.189Z,1.27
2023-03-15T00:51:19.151Z,1.60
2023-03-15T00:53:46.763Z,1.00
2023-03-15T00:56:20.096Z,1.35
2023-03-15T00:58:47.059Z,1.55
2023-03-15T01:01:21.504Z,1.00
2023-03-15T01:03:48.465Z,1.30
2023-03-15T01:06:18.893Z,0.88
2023-03-15T01:08:45.971Z,0.95
2023-03-15T01:11:19.852Z,1.38
2023-03-15T01:13:47.097Z,0.90
2023-03-15T01:16:14.777Z,1.23
2023-03-15T01:18:42.096Z,1.02
2023-03-15T01:21:15.033Z,1.20
2023-03-15T01:23:42.035Z,1.20
2023-03-15T01:26:13.111Z,1.00
2023-03-15T01:28:40.191Z,1.02
2023-03-15T01:31:07.539Z,1.33
2023-03-15T01:33:34.314Z,1.00
2023-03-15T01:36:07.236Z,1.20
2023-03-15T01:38:34.545Z,1.10
2023-03-15T01:41:01.936Z,0.98
2023-03-15T01:43:31.972Z,1.13
2023-03-15T01:46:01.763Z,1.00
2023-03-15T01:48:36.136Z,0.90
2023-03-15T01:51:15.576Z,1.15
2023-03-15T01:53:47.451Z,1.23
2023-03-15T01:56:15.540Z,1.30
2023-03-15T01:58:45.965Z,1.23
2023-03-15T02:01:14.720Z,0.85
2023-03-15T02:03:46.639Z,1.17
2023-03-15T02:06:21.543Z,1.13
2023-03-15T02:08:57.387Z,1.48
2023-03-15T02:11:26.115Z,1.10
2023-03-15T02:13:54.744Z,0.93
2023-03-15T02:16:23.828Z,1.02
2023-03-15T02:18:50.682Z,0.90
2023-03-15T02:21:39.748Z,1.10
2023-03-15T02:24:21.649Z,0.60
2023-03-15T02:26:55.332Z,0.98
2023-03-15T02:29:25.480Z,0.85
2023-03-15T02:31:53.647Z,0.80
2023-03-15T02:34:25.376Z,1.20
2023-03-15T02:36:54.090Z,1.02
2023-03-15T02:39:23.271Z,1.00
2023-03-15T02:41:58.357Z,1.27
2023-03-15T02:44:35.746Z,1.20
2023-03-15T02:47:26.952Z,0.98
2023-03-15T02:49:54.004Z,1.20
2023-03-15T02:52:22.149Z,1.33
2023-03-15T02:54:49.994Z,0.82
2023-03-15T02:57:18.877Z,1.10
2023-03-15T02:59:45.698Z,1.00
2023-03-15T03:02:13.355Z,1.08
2023-03-15T03:04:41.797Z,1.23
2023-03-15T03:07:08.959Z,1.13
2023-03-15T03:09:35.845Z,1.27
2023-03-15T03:12:03.332Z,1.63
2023-03-15T03:14:31.266Z,1.23
2023-03-15T03:17:01.771Z,1.40
2023-03-15T03:19:28.654Z,1.33
2023-03-15T03:21:55.851Z,1.45
2023-03-15T03:24:25.734Z,1.33
2023-03-15T03:26:57.715Z,1.50
2023-03-15T03:29:25.766Z,1.23
2023-03-15T03:31:52.942Z,1.08
2023-03-15T03:34:19.958Z,1.10
2023-03-15T03:36:48.661Z,1.20
2023-03-15T03:39:15.437Z,0.95
2023-03-15T03:41:42.505Z,1.45
2023-03-15T03:44:09.428Z,0.90
2023-03-15T03:46:36.523Z,1.20
2023-03-15T03:49:03.300Z,1.40
2023-03-15T03:51:30.852Z,1.45
2023-03-15T03:53:57.656Z,1.17
2023-03-15T03:56:24.737Z,1.23
2023-03-15T03:58:51.470Z,1.20
2023-03-15T04:01:18.850Z,1.20
2023-03-15T04:03:45.619Z,1.00
2023-03-15T04:06:12.689Z,1.27
2023-03-15T04:08:40.975Z,0.88
2023-03-15T04:11:08.027Z,1.08
2023-03-15T04:13:34.788Z,1.02
2023-03-15T04:16:03.803Z,1.08
2023-03-15T04:18:30.716Z,0.90
2023-03-15T04:20:57.749Z,0.80
2023-03-15T04:23:24.954Z,1.00
2023-03-15T04:25:55.255Z,1.08
2023-03-15T04:28:22.966Z,0.88
2023-03-15T04:30:51.101Z,1.05
2023-03-15T04:33:18.136Z,0.98
2023-03-15T04:35:45.199Z,0.77
2023-03-15T04:38:12.284Z,0.80
2023-03-15T04:40:39.488Z,0.70
2023-03-15T04:43:06.389Z,0.80
2023-03-15T04:45:33.755Z,0.80
2023-03-15T04:48:01.834Z,0.60
2023-03-15T04:50:30.479Z,0.73
2023-03-15T04:53:00.138Z,0.57
2023-03-15T04:55:27.599Z,0.82
2023-03-15T04:57:55.390Z,0.98
2023-03-15T05:00:22.792Z,0.98
2023-03-15T05:02:55.224Z,0.75
2023-03-15T05:05:23.906Z,0.70
2023-03-15T05:07:50.868Z,0.60
2023-03-15T05:10:18.082Z,0.70
2023-03-15T05:12:45.385Z,0.80
2023-03-15T05:15:13.717Z,0.77
2023-03-15T05:17:40.496Z,0.75
2023-03-15T05:20:10.858Z,0.90
2023-03-15T05:22:38.521Z,0.82
2023-03-15T05:25:06.018Z,0.90
2023-03-15T05:27:34.053Z,1.05
2023-03-15T05:30:03.127Z,1.15
2023-03-15T05:32:34.660Z,1.10
2023-03-15T05:35:02.442Z,1.13
2023-03-15T05:37:29.880Z,0.95
2023-03-15T05:39:56.905Z,1.27
2023-03-15T05:42:26.273Z,1.40
2023-03-15T05:44:54.081Z,1.38
2023-03-15T05:47:21.563Z,1.83
2023-03-15T05:49:49.504Z,2.13
2023-03-15T05:52:16.797Z,1.50
2023-03-15T05:54:43.937Z,2.20
2023-03-15T05:57:12.078Z,2.30
2023-03-15T05:59:39.205Z,2.22
2023-03-15T06:02:06.339Z,2.00
2023-03-15T06:04:33.472Z,2.00
2023-03-15T06:07:00.374Z,2.42
2023-03-15T06:09:27.532Z,2.20
2023-03-15T06:11:54.925Z,2.40
2023-03-15T06:14:21.993Z,3.05
2023-03-15T06:16:48.783Z,2.47
2023-03-15T06:19:15.850Z,2.95
2023-03-15T06:21:42.597Z,2.60
2023-03-15T06:24:09.831Z,3.28
2023-03-15T06:26:36.636Z,2.83
2023-03-15T06:29:03.807Z,3.33
2023-03-15T06:31:30.572Z,2.78
2023-03-15T06:33:57.630Z,2.70
2023-03-15T06:36:25.029Z,3.00
2023-03-15T06:38:55.060Z,3.03
2023-03-15T06:41:21.822Z,3.17
2023-03-15T06:43:48.900Z,3.75
2023-03-15T06:46:15.704Z,3.50
2023-03-15T06:48:43.077Z,3.30
2023-03-15T06:51:10.109Z,2.80
2023-03-15T06:53:37.143Z,3.33
2023-03-15T06:56:04.093Z,2.95
2023-03-15T06:58:31.205Z,3.83
2023-03-15T07:00:57.980Z,3.17
2023-03-15T07:03:25.089Z,3.33
2023-03-15T07:05:54.093Z,3.17
2023-03-15T07:08:22.188Z,3.78
2023-03-15T07:10:50.338Z,3.15
2023-03-15T07:13:18.890Z,2.72
2023-03-15T07:15:45.945Z,3.20
2023-03-15T07:18:13.211Z,2.70
2023-03-15T07:20:39.987Z,3.10
2023-03-15T07:23:07.044Z,2.60
2023-03-15T07:25:44.921Z,3.13
2023-03-15T07:28:19.359Z,3.45
2023-03-15T07:31:01.808Z,3.30
2023-03-15T07:33:31.477Z,2.78
2023-03-15T07:35:58.725Z,3.03
2023-03-15T07:38:31.132Z,2.78
2023-03-15T07:40:58.703Z,2.90
2023-03-15T07:43:25.783Z,3.42
2023-03-15T07:45:53.577Z,2.70
2023-03-15T07:48:20.765Z,3.08
2023-03-15T07:50:47.719Z,2.58
2023-03-15T07:53:15.301Z,2.75
2023-03-15T07:55:42.085Z,2.38
2023-03-15T07:58:09.141Z,3.28
2023-03-15T08:00:35.940Z,2.25
2023-03-15T08:03:03.112Z,3.60
2023-03-15T08:05:30.346Z,2.97
2023-03-15T08:07:57.411Z,3.15
2023-03-15T08:10:24.188Z,2.92
2023-03-15T08:12:51.251Z,2.55
2023-03-15T08:15:19.141Z,2.25
2023-03-15T08:17:48.233Z,2.50
2023-03-15T08:20:17.837Z,2.45
2023-03-15T08:22:49.617Z,1.98
2023-03-15T08:25:19.934Z,2.45
2023-03-15T08:27:47.648Z,2.50
2023-03-15T08:30:15.891Z,1.75
2023-03-15T08:32:44.992Z,2.33
2023-03-15T08:35:15.543Z,2.03
2023-03-15T08:37:47.802Z,1.88
2023-03-15T08:40:16.667Z,1.80
2023-03-15T08:42:43.843Z,1.88
2023-03-15T08:45:11.518Z,1.77
2023-03-15T08:47:38.687Z,2.47
2023-03-15T08:50:09.555Z,2.10
2023-03-15T08:52:36.655Z,1.95
2023-03-15T08:55:07.038Z,1.98
2023-03-15T08:57:34.574Z,2.22
2023-03-15T09:00:10.317Z,1.05
2023-03-15T09:02:37.630Z,1.88
2023-03-15T09:05:07.169Z,2.05
2023-03-15T09:07:34.510Z,1.85
2023-03-15T09:10:03.422Z,2.38
2023-03-15T09:12:31.993Z,2.00
2023-03-15T09:14:58.790Z,1.90
2023-03-15T09:17:25.980Z,2.13
2023-03-15T09:19:52.785Z,3.10
2023-03-15T09:22:34.723Z,1.73
2023-03-15T09:25:05.360Z,1.70
2023-03-15T09:27:33.178Z,1.77
2023-03-15T09:30:00.610Z,1.92
2023-03-15T09:32:28.166Z,2.10
2023-03-15T09:34:55.581Z,2.35
2023-03-15T09:37:22.832Z,1.42
2023-03-15T09:39:49.637Z,1.60
2023-03-15T09:42:24.770Z,2.00
2023-03-15T09:45:04.814Z,1.95
2023-03-15T09:47:39.193Z,1.67
2023-03-15T09:50:31.637Z,2.40
2023-03-15T09:53:04.710Z,2.22
2023-03-15T09:55:31.570Z,2.00
2023-03-15T09:58:12.778Z,1.63
2023-03-15T10:00:48.608Z,2.20
2023-03-15T10:03:33.486Z,2.05
2023-03-15T10:06:07.471Z,2.28
2023-03-15T10:08:34.577Z,2.15
2023-03-15T10:11:40.298Z,2.20
2023-03-15T10:14:44.714Z,1.80
2023-03-15T10:17:14.012Z,1.92
2023-03-15T10:19:53.557Z,2.00
2023-03-15T10:22:47.874Z,1.85
2023-03-15T10:25:17.094Z,1.75
2023-03-15T10:27:52.510Z,1.55
2023-03-15T10:30:28.531Z,1.98
2023-03-15T10:33:01.859Z,2.63
2023-03-15T10:35:29.128Z,1.40
2023-03-15T10:37:56.226Z,2.58
2023-03-15T10:40:49.522Z,1.70
2023-03-15T10:43:24.798Z,2.05
2023-03-15T10:46:02.925Z,2.00
2023-03-15T10:48:37.905Z,1.88
2023-03-15T10:51:20.090Z,2.13
2023-03-15T10:53:56.227Z,2.28
2023-03-15T10:56:26.183Z,2.00
2023-03-15T10:59:11.557Z,2.28
2023-03-15T11:01:43.851Z,2.20
2023-03-15T11:04:26.872Z,2.08
2023-03-15T11:06:53.870Z,2.17
2023-03-15T11:09:23.507Z,1.83
2023-03-15T11:12:05.312Z,2.28
2023-03-15T11:14:36.778Z,2.20
2023-03-15T11:17:06.054Z,1.75
2023-03-15T11:19:42.193Z,1.80
2023-03-15T11:22:13.814Z,2.42
2023-03-15T11:24:40.695Z,2.13
2023-03-15T11:27:17.815Z,2.15
2023-03-15T11:29:52.589Z,1.75
2023-03-15T11:32:31.870Z,2.08
2023-03-15T11:35:08.068Z,2.40
2023-03-15T11:38:06.167Z,2.00
2023-03-15T11:40:53.725Z,2.88
2023-03-15T11:43:55.132Z,2.05
2023-03-15T11:46:33.014Z,2.20
2023-03-15T11:49:23.944Z,2.33
2023-03-15T11:51:50.924Z,2.15
2023-03-15T11:54:19.922Z,2.55
2023-03-15T11:56:48.711Z,1.95
2023-03-15T11:59:46.394Z,2.33
2023-03-15T12:02:15.702Z,2.38
2023-03-15T12:04:46.882Z,2.15
2023-03-15T12:07:19.729Z,2.20
2023-03-15T12:09:52.949Z,2.13
2023-03-15T12:12:25.654Z,2.47
2023-03-15T12:15:27.836Z,2.40
2023-03-15T12:17:56.450Z,2.28
2023-03-15T12:20:38.943Z,2.38
2023-03-15T12:23:17.690Z,2.30
2023-03-15T12:25:55.311Z,1.90
2023-03-15T12:28:51.765Z,2.55
2023-03-15T12:31:20.175Z,2.25
2023-03-15T12:33:52.792Z,2.15
2023-03-15T12:36:26.385Z,2.00
2023-03-15T12:39:19.185Z,2.00
2023-03-15T12:41:51.249Z,2.22
2023-03-15T12:44:26.347Z,1.95
2023-03-15T12:46:55.060Z,2.10
2023-03-15T12:49:24.846Z,2.08
2023-03-15T12:52:04.165Z,2.72
2023-03-15T12:54:45.914Z,1.85
2023-03-15T12:57:19.204Z,2.42
2023-03-15T12:59:58.607Z,2.35
2023-03-15T13:02:43.430Z,2.50
2023-03-15T13:05:10.832Z,2.20
2023-03-15T13:07:50.645Z,1.88
2023-03-15T13:10:20.712Z,1.65
2023-03-15T13:13:01.765Z,2.10
2023-03-15T13:15:34.311Z,1.65
2023-03-15T13:18:17.790Z,1.67
2023-03-15T13:21:06.756Z,2.13
2023-03-15T13:23:34.622Z,1.77
2023-03-15T13:26:34.946Z,2.25
2023-03-15T13:29:21.180Z,2.05
2023-03-15T13:32:01.458Z,1.92
2023-03-15T13:34:32.176Z,1.75
2023-03-15T13:37:02.213Z,1.67
2023-03-15T13:39:32.503Z,1.65
2023-03-15T13:42:04.657Z,1.25
2023-03-15T13:44:33.238Z,2.47
2023-03-15T13:47:01.129Z,1.45
2023-03-15T13:49:33.382Z,1.30
2023-03-15T13:52:03.836Z,1.52
2023-03-15T13:54:33.101Z,1.85
2023-03-15T13:57:06.144Z,1.90
2023-03-15T13:59:53.660Z,1.58
2023-03-15T14:02:45.871Z,1.40
2023-03-15T14:05:17.414Z,1.52
2023-03-15T14:07:48.544Z,1.52
2023-03-15T14:10:37.592Z,1.20
2023-03-15T14:13:32.493Z,1.42
2023-03-15T14:16:15.688Z,1.45
2023-03-15T14:18:42.773Z,1.20
2023-03-15T14:21:19.325Z,1.42
2023-03-15T14:23:49.092Z,1.45
2023-03-15T14:26:23.436Z,1.75
2023-03-15T14:29:05.274Z,0.95
2023-03-15T14:31:38.473Z,1.63
2023-03-15T14:34:09.395Z,0.93
2023-03-15T14:36:46.034Z,1.08
2023-03-15T14:39:35.652Z,1.15
2023-03-15T14:42:02.977Z,1.60
2023-03-15T14:44:29.757Z,1.70
2023-03-15T14:46:56.927Z,1.60
2023-03-15T14:49:26.154Z,1.40
2023-03-15T14:52:00.005Z,1.25
2023-03-15T14:54:29.251Z,1.35
2023-03-15T14:56:56.589Z,1.45
2023-03-15T14:59:23.793Z,2.15
2023-03-15T15:01:55.043Z,1.70
2023-03-15T15:04:22.333Z,1.38
2023-03-15T15:06:53.253Z,1.42
2023-03-15T15:09:25.856Z,1.50
2023-03-15T15:11:53.954Z,2.03
2023-03-15T15:14:22.096Z,1.80
2023-03-15T15:16:49.849Z,2.13
2023-03-15T15:19:16.779Z,1.50
2023-03-15T15:21:43.964Z,1.42
2023-03-15T15:24:17.182Z,1.55
2023-03-15T15:26:44.494Z,1.83
2023-03-15T15:29:14.216Z,1.52
2023-03-15T15:31:42.367Z,1.58
2023-03-15T15:34:12.825Z,1.67
2023-03-15T15:36:42.909Z,1.88
2023-03-15T15:39:24.110Z,1.70
2023-03-15T15:41:51.200Z,2.10
2023-03-15T15:44:20.658Z,1.10
2023-03-15T15:46:47.850Z,1.20
2023-03-15T15:49:14.740Z,1.55
2023-03-15T15:51:49.644Z,1.65
2023-03-15T15:54:25.935Z,1.60
2023-03-15T15:57:00.692Z,1.58
2023-03-15T15:59:28.122Z,1.52
2023-03-15T16:02:01.187Z,1.50
2023-03-15T16:04:29.480Z,1.45
2023-03-15T16:06:59.802Z,1.73
2023-03-15T16:09:28.860Z,1.17
2023-03-15T16:11:56.057Z,1.67
2023-03-15T16:14:23.039Z,1.42
2023-03-15T16:16:50.354Z,2.47
2023-03-15T16:19:17.150Z,1.80
2023-03-15T16:21:50.820Z,1.50
2023-03-15T16:24:22.113Z,1.55
2023-03-15T16:26:49.963Z,1.80
2023-03-15T16:29:22.453Z,2.00
2023-03-15T16:31:51.125Z,1.55
2023-03-15T16:34:19.417Z,1.38
2023-03-15T16:36:49.595Z,1.50
2023-03-15T16:39:17.381Z,1.33
2023-03-15T16:41:44.514Z,2.00
2023-03-15T16:44:13.739Z,1.85
2023-03-15T16:46:41.053Z,1.95
2023-03-15T16:49:08.613Z,1.88
2023-03-15T16:51:39.164Z,1.40
2023-03-15T16:54:19.507Z,1.40
2023-03-15T16:56:51.563Z,1.27
2023-03-15T16:59:18.722Z,1.60
2023-03-15T17:01:46.212Z,1.50
2023-03-15T17:04:14.833Z,1.60
2023-03-15T17:06:47.454Z,1.85
2023-03-15T17:09:21.255Z,1.58
2023-03-15T17:11:50.030Z,1.58
2023-03-15T17:14:21.734Z,2.60
2023-03-15T17:16:48.848Z,2.03
2023-03-15T17:19:15.910Z,2.55
2023-03-15T17:21:44.268Z,1.80
2023-03-15T17:24:13.421Z,1.90
2023-03-15T17:26:41.891Z,1.92
2023-03-15T17:29:09.253Z,2.20
2023-03-15T17:31:37.588Z,1.67
2023-03-15T17:34:07.498Z,2.35
2023-03-15T17:36:41.123Z,1.90
2023-03-15T17:39:14.265Z,1.40
2023-03-15T17:41:45.293Z,2.22
2023-03-15T17:44:12.138Z,1.85
2023-03-15T17:46:39.373Z,2.25
2023-03-15T17:49:08.965Z,2.13
2023-03-15T17:51:37.429Z,2.10
2023-03-15T17:54:17.132Z,2.10
2023-03-15T17:56:44.485Z,2.30
2023-03-15T17:59:12.652Z,2.30
2023-03-15T18:01:43.550Z,3.05
2023-03-15T18:04:12.714Z,2.13
2023-03-15T18:06:39.938Z,2.17
2023-03-15T18:09:06.829Z,2.15
2023-03-15T18:11:36.188Z,2.03
2023-03-15T18:14:04.868Z,2.00
2023-03-15T18:16:32.283Z,1.90
2023-03-15T18:18:59.235Z,2.55
2023-03-15T18:21:27.998Z,2.10
2023-03-15T18:23:55.329Z,2.13
2023-03-15T18:26:22.865Z,2.28
2023-03-15T18:28:50.600Z,2.67
2023-03-15T18:31:20.697Z,2.90
2023-03-15T18:33:48.502Z,2.30
2023-03-15T18:36:15.899Z,2.28
2023-03-15T18:38:43.265Z,2.22
2023-03-15T18:41:17.174Z,1.70
2023-03-15T18:43:50.050Z,2.70
2023-03-15T18:46:22.626Z,2.17
2023-03-15T18:48:50.089Z,1.63
2023-03-15T18:51:17.506Z,2.25
2023-03-15T18:53:45.434Z,2.10
2023-03-15T18:56:27.994Z,2.47
2023-03-15T18:58:54.922Z,1.60
2023-03-15T19:01:23.335Z,1.90
2023-03-15T19:03:51.722Z,2.42
2023-03-15T19:06:19.110Z,2.00
2023-03-15T19:08:46.014Z,2.13
2023-03-15T19:11:13.159Z,1.98
2023-03-15T19:13:40.114Z,1.88
2023-03-15T19:16:08.047Z,1.63
2023-03-15T19:18:35.083Z,1.60
2023-03-15T19:21:02.669Z,2.22
2023-03-15T19:23:29.614Z,1.92
2023-03-15T19:25:56.888Z,2.08
2023-03-15T19:28:23.657Z,1.70
2023-03-15T19:30:51.118Z,1.60
2023-03-15T19:33:18.168Z,1.92
2023-03-15T19:35:45.293Z,1.52
2023-03-15T19:38:12.157Z,1.83
2023-03-15T19:40:39.296Z,1.88
2023-03-15T19:43:06.435Z,1.45
2023-03-15T19:45:33.548Z,1.73
2023-03-15T19:48:00.356Z,1.67
2023-03-15T19:50:31.300Z,1.40
2023-03-15T19:52:58.938Z,2.33
2023-03-15T19:55:31.569Z,1.52
2023-03-15T19:57:58.621Z,1.75
2023-03-15T20:00:25.804Z,1.80
2023-03-15T20:02:52.695Z,1.60
2023-03-15T20:05:21.552Z,1.75
2023-03-15T20:07:51.213Z,1.70
2023-03-15T20:10:20.083Z,1.60
2023-03-15T20:12:47.385Z,1.27
2023-03-15T20:15:17.400Z,1.58
2023-03-15T20:17:44.634Z,1.90
2023-03-15T20:20:13.944Z,1.80
2023-03-15T20:22:42.836Z,1.60
2023-03-15T20:25:14.397Z,2.00
2023-03-15T20:27:42.239Z,1.58
2023-03-15T20:30:12.698Z,1.55
2023-03-15T20:32:39.696Z,2.20
2023-03-15T20:35:09.547Z,1.73
2023-03-15T20:37:40.357Z,1.73
2023-03-15T20:40:11.175Z,2.15
2023-03-15T20:42:38.022Z,1.77
2023-03-15T20:45:07.228Z,2.25
2023-03-15T20:47:34.402Z,1.90
2023-03-15T20:50:01.983Z,2.47
2023-03-15T20:52:28.973Z,2.17
2023-03-15T20:54:56.035Z,2.85
2023-03-15T20:57:22.868Z,2.50
2023-03-15T20:59:50.086Z,2.47
2023-03-15T21:02:17.055Z,2.15
2023-03-15T21:04:44.630Z,1.90
2023-03-15T21:07:11.982Z,2.70
2023-03-15T21:09:40.282Z,2.08
2023-03-15T21:12:08.086Z,2.13
2023-03-15T21:14:35.560Z,2.78
2023-03-15T21:17:04.993Z,1.98
2023-03-15T21:19:32.038Z,2.38
2023-03-15T21:22:00.822Z,2.90
2023-03-15T21:24:40.602Z,2.65
2023-03-15T21:27:11.379Z,3.35
2023-03-15T21:29:40.096Z,2.00
2023-03-15T21:32:07.382Z,1.92
2023-03-15T21:34:34.501Z,2.22
2023-03-15T21:37:01.431Z,2.20
2023-03-15T21:39:28.511Z,2.88
2023-03-15T21:41:55.293Z,2.78
2023-03-15T21:44:22.703Z,2.58
2023-03-15T21:46:49.543Z,2.00
2023-03-15T21:49:16.661Z,2.47
2023-03-15T21:51:45.971Z,2.58
2023-03-15T21:54:15.846Z,2.75
2023-03-15T21:56:42.627Z,2.55
2023-03-15T21:59:10.407Z,3.08
2023-03-15T22:01:37.216Z,2.28
2023-03-15T22:04:04.352Z,2.67
2023-03-15T22:06:31.184Z,2.45
2023-03-15T22:08:58.267Z,2.33
2023-03-15T22:11:25.029Z,2.97
2023-03-15T22:13:52.798Z,2.40
2023-03-15T22:16:19.562Z,2.30
2023-03-15T22:18:46.770Z,2.50
2023-03-15T22:21:13.565Z,2.80
2023-03-15T22:23:40.715Z,2.40
2023-03-15T22:26:07.538Z,2.45
2023-03-15T22:28:35.359Z,2.42
2023-03-15T22:31:02.343Z,2.15
2023-03-15T22:33:29.546Z,2.20
2023-03-15T22:35:57.579Z,2.08
2023-03-15T22:38:25.385Z,2.13
2023-03-15T22:41:00.738Z,2.65
2023-03-15T22:43:27.932Z,2.55
2023-03-15T22:45:54.938Z,1.92
2023-03-15T22:48:22.903Z,2.28
2023-03-15T22:51:18.738Z,2.40
2023-03-15T22:53:45.756Z,1.90
2023-03-15T22:56:12.587Z,2.42
2023-03-15T22:58:42.618Z,2.25
2023-03-15T23:01:10.289Z,2.28
2023-03-15T23:03:37.373Z,2.38
2023-03-15T23:06:04.433Z,1.95
2023-03-15T23:08:31.545Z,1.98
2023-03-15T23:10:58.697Z,1.90
2023-03-15T23:13:28.818Z,1.83
2023-03-15T23:15:55.721Z,1.67
2023-03-15T23:18:22.929Z,2.10
2023-03-15T23:20:50.055Z,2.00
2023-03-15T23:23:17.490Z,1.83
2023-03-15T23:25:45.931Z,2.08
2023-03-15T23:28:13.897Z,1.85
2023-03-15T23:30:40.757Z,1.90
2023-03-15T23:33:08.524Z,2.33
2023-03-15T23:35:35.634Z,1.67
2023-03-15T23:38:03.102Z,1.92
2023-03-15T23:40:30.172Z,1.83
2023-03-15T23:43:03.223Z,1.70
2023-03-15T23:45:30.263Z,1.55
2023-03-15T23:47:58.038Z,1.90
2023-03-15T23:50:25.892Z,2.85
2023-03-15T23:52:54.767Z,1.95
2023-03-15T23:55:23.534Z,2.15
2023-03-15T23:57:51.032Z,2.20
